createdAt,value
2023-02-03T00:03:54.431Z,0
2023-02-03T00:08:56.155Z,0
2023-02-03T00:13:57.898Z,0
2023-02-03T00:18:59.361Z,0.88715
2023-02-03T00:24:00.889Z,0.88715
2023-02-03T00:29:02.586Z,0.88715
2023-02-03T00:34:04.329Z,0.88715
2023-02-03T00:39:05.814Z,0
2023-02-03T00:44:07.568Z,0
2023-02-03T00:49:09.239Z,0
2023-02-03T00:54:11.042Z,0
2023-02-03T00:59:12.848Z,0
2023-02-03T01:04:14.426Z,0
2023-02-03T01:09:15.942Z,0
2023-02-03T01:14:17.428Z,0
2023-02-03T01:19:19.117Z,0
2023-02-03T01:24:20.910Z,0
2023-02-03T01:29:22.607Z,0
2023-02-03T01:34:24.443Z,0
2023-02-03T01:39:26.156Z,0
2023-02-03T01:44:27.713Z,0
2023-02-03T01:49:29.303Z,0
2023-02-03T01:54:30.803Z,0
2023-02-03T01:59:32.465Z,0
2023-02-03T02:04:33.956Z,0
2023-02-03T02:09:35.667Z,0
2023-02-03T02:14:37.176Z,0
2023-02-03T02:19:38.935Z,0
2023-02-03T02:24:40.454Z,0
2023-02-03T02:29:42.080Z,0
2023-02-03T02:34:43.536Z,0.88715
2023-02-03T02:39:45.463Z,0.88715
2023-02-03T02:44:47.139Z,0
2023-02-03T02:49:48.626Z,0
2023-02-03T02:54:50.309Z,0
2023-02-03T02:59:52.076Z,0.88715
2023-02-03T03:04:53.602Z,0
2023-02-03T03:09:55.801Z,0.88715
2023-02-03T03:14:57.258Z,0.88715
2023-02-03T03:19:58.923Z,0.88715
2023-02-03T03:25:01.027Z,1.16185
2023-02-03T03:30:03.177Z,1.2444
2023-02-03T03:35:05.144Z,2.42955
2023-02-03T03:40:07.147Z,12.17185
2023-02-03T03:45:09.037Z,21.46665
2023-02-03T03:50:11.030Z,33.08515
2023-02-03T03:55:13.082Z,43.35735
2023-02-03T04:00:15.068Z,40.2407
2023-02-03T04:05:16.553Z,43.72625
2023-02-03T04:10:18.512Z,52.65215
2023-02-03T04:15:20.548Z,63.7363
2023-02-03T04:20:22.309Z,84.1704
2023-02-03T04:25:24.276Z,88.91095
2023-02-03T04:30:26.818Z,111.44815
2023-02-03T04:35:28.573Z,133.8009
2023-02-03T04:40:30.392Z,114.52865
2023-02-03T04:45:32.388Z,129.6517
2023-02-03T04:50:34.210Z,140.0912
2023-02-03T04:55:36.391Z,147.3932
2023-02-03T05:00:38.434Z,132.0857
2023-02-03T05:05:40.102Z,199.91605
2023-02-03T05:10:41.794Z,84.11525
2023-02-03T05:15:43.641Z,246.3159
2023-02-03T05:20:45.394Z,538.387
2023-02-03T05:25:46.881Z,719.434
2023-02-03T05:30:48.800Z,727.18275
2023-02-03T05:35:50.281Z,690.32705
2023-02-03T05:40:51.792Z,769.3801
2023-02-03T05:45:53.423Z,820.5585
2023-02-03T05:50:55.205Z,826.40575
2023-02-03T05:55:56.731Z,849.36885
2023-02-03T06:00:58.576Z,851.3635
2023-02-03T06:06:00.396Z,872.92515
2023-02-03T06:11:02.430Z,882.1115
2023-02-03T06:16:04.245Z,888.84485
2023-02-03T06:21:05.922Z,897.7916
2023-02-03T06:26:07.758Z,913.81975
2023-02-03T06:31:09.771Z,900.5069
2023-02-03T06:36:11.590Z,966.6086
2023-02-03T06:41:13.661Z,1011.76875
2023-02-03T06:46:15.273Z,1050.1858
2023-02-03T06:51:16.736Z,1096.72605
2023-02-03T06:56:18.443Z,1090.7342
2023-02-03T07:01:20.525Z,968.9328
2023-02-03T07:06:22.315Z,1071.9656
2023-02-03T07:11:24.312Z,1120.30505
2023-02-03T07:16:26.246Z,1143.9471
2023-02-03T07:21:28.144Z,1148.5945
2023-02-03T07:26:29.972Z,1132.0547
2023-02-03T07:31:32.531Z,1203.9913
2023-02-03T07:36:34.408Z,1057.92195
2023-02-03T07:41:36.198Z,1034.44685
2023-02-03T07:46:38.338Z,1249.64115
2023-02-03T07:51:40.244Z,1045.35445
2023-02-03T07:56:42.014Z,965.2401
2023-02-03T08:01:44.202Z,1330.0314
2023-02-03T08:06:46.067Z,1431.2183
2023-02-03T08:11:47.636Z,1434.5617
2023-02-03T08:16:49.095Z,978.8018
2023-02-03T08:21:50.579Z,771.5059
2023-02-03T08:26:52.504Z,723.8492
2023-02-03T08:31:54.334Z,742.0699
2023-02-03T08:36:56.074Z,1437.9973
2023-02-03T08:41:57.918Z,1066.89525
2023-02-03T08:46:59.507Z,1471.6073
2023-02-03T08:52:01.121Z,1446.23475
2023-02-03T08:57:02.699Z,1184.78385
2023-02-03T09:02:04.378Z,1034.236
2023-02-03T09:07:05.825Z,1357.52355
2023-02-03T09:12:07.652Z,1084.42775
2023-02-03T09:17:09.635Z,1562.2089
2023-02-03T09:22:11.315Z,1722.80415
2023-02-03T09:27:13.370Z,1683.74245
2023-02-03T09:32:15.944Z,1688.8102
2023-02-03T09:37:17.694Z,1728.777
2023-02-03T09:42:19.546Z,1711.58885
2023-02-03T09:47:21.332Z,1829.6545
2023-02-03T09:52:23.232Z,1892.71185
2023-02-03T09:57:25.053Z,1952.36705
2023-02-03T10:02:27.031Z,1876.9774
2023-02-03T10:07:28.791Z,1035.9665
2023-02-03T10:12:30.817Z,1821.3941
2023-02-03T10:17:32.630Z,1746.40315
2023-02-03T10:22:34.427Z,1652.4152
2023-02-03T10:27:36.442Z,1935.7605
2023-02-03T10:32:38.660Z,1238.6303
2023-02-03T10:37:40.580Z,2025.9821
2023-02-03T10:42:42.471Z,2151.4466
2023-02-03T10:47:44.238Z,1188.24115
2023-02-03T10:52:46.075Z,1228.5254
2023-02-03T10:57:47.787Z,2204.71095
2023-02-03T11:02:50.424Z,2199.2099
2023-02-03T11:07:51.919Z,2291.36495
2023-02-03T11:12:53.519Z,2365.83735
2023-02-03T11:17:55.214Z,1268.87085
2023-02-03T11:22:56.772Z,1227.7992
2023-02-03T11:27:58.747Z,2132.98075
2023-02-03T11:33:00.451Z,1175.77455
2023-02-03T11:38:02.328Z,1304.13695
2023-02-03T11:43:04.124Z,2236.8071
2023-02-03T11:48:05.641Z,2270.9897
2023-02-03T11:53:07.229Z,2342.7468
2023-02-03T11:58:08.724Z,1094.90155
2023-02-03T12:03:11.518Z,1093.0552
2023-02-03T12:08:13.116Z,2520.25495
2023-02-03T12:13:14.753Z,2412.02215
2023-02-03T12:18:16.310Z,1402.04795
2023-02-03T12:23:17.794Z,2548.08605
2023-02-03T12:28:32.443Z,2205.51365
2023-02-03T12:33:36.040Z,2562.9088
2023-02-03T12:38:37.812Z,2231.72875
2023-02-03T12:43:39.537Z,1600.271
2023-02-03T12:48:41.723Z,2558.425
2023-02-03T12:53:43.610Z,2858.5739
2023-02-03T12:58:45.454Z,2377.9643
2023-02-03T13:03:48.258Z,2212.4037
2023-02-03T13:08:49.986Z,1043.61285
2023-02-03T13:13:51.585Z,2416.87165
2023-02-03T13:18:53.157Z,2188.2806
2023-02-03T13:23:54.650Z,2534.3747
2023-02-03T13:28:56.438Z,2553.9
2023-02-03T13:33:58.147Z,2671.3933
2023-02-03T13:38:59.747Z,2631.8334
2023-02-03T13:44:01.466Z,2719.5445
2023-02-03T13:49:03.308Z,2828.7964
2023-02-03T13:54:05.105Z,2681.97925
2023-02-03T13:59:06.591Z,2593.14245
2023-02-03T14:04:08.598Z,2759.9715
2023-02-03T14:09:10.153Z,2760.54385
2023-02-03T14:14:12.174Z,1821.97535
2023-02-03T14:19:13.929Z,2152.159
2023-02-03T14:24:15.831Z,1951.0774
2023-02-03T14:29:17.616Z,1250.3855
2023-02-03T14:34:19.987Z,1146.02245
2023-02-03T14:39:21.852Z,900.2562
2023-02-03T14:44:23.885Z,864.4919
2023-02-03T14:49:26.139Z,775.08275
2023-02-03T14:54:27.940Z,977.6381
2023-02-03T14:59:29.912Z,826.9438
2023-02-03T15:04:31.940Z,1350.0001
2023-02-03T15:09:33.857Z,1318.29555
2023-02-03T15:14:36.655Z,1285.469
2023-02-03T15:19:38.438Z,851.8047
2023-02-03T15:24:40.533Z,594.7147
2023-02-03T15:29:42.483Z,604.76815
2023-02-03T15:34:45.306Z,416.74635
2023-02-03T15:39:47.426Z,399.54105
2023-02-03T15:44:49.169Z,275.12625
2023-02-03T15:49:50.606Z,242.07725
2023-02-03T15:54:52.110Z,220.05725
2023-02-03T15:59:53.863Z,197.096
2023-02-03T16:04:55.564Z,162.88515
2023-02-03T16:09:57.026Z,131.1083
2023-02-03T16:14:58.603Z,93.2826
2023-02-03T16:20:00.136Z,77.2373
2023-02-03T16:25:01.833Z,76.4272
2023-02-03T16:30:04.200Z,76.08645
2023-02-03T16:35:06.381Z,71.81985
2023-02-03T16:40:08.571Z,69.2716
2023-02-03T16:45:10.515Z,50.25015
2023-02-03T16:50:12.330Z,40.11715
2023-02-03T16:55:14.438Z,25.6584
2023-02-03T17:00:16.460Z,13.7477
2023-02-03T17:05:18.453Z,7.3479
2023-02-03T17:10:20.177Z,3.9702
2023-02-03T17:15:21.966Z,1.83695
2023-02-03T17:20:24.122Z,0.5333
2023-02-03T17:25:26.001Z,1.16185
2023-02-03T17:30:27.625Z,0
2023-02-03T17:35:30.610Z,0.88715
2023-02-03T17:54:53.034Z,0
2023-02-03T17:59:54.686Z,0
2023-02-03T18:04:56.457Z,0
2023-02-03T18:09:58.263Z,0
2023-02-03T18:14:59.797Z,0
2023-02-03T18:20:01.666Z,0
2023-02-03T18:25:03.316Z,0.88715
2023-02-03T18:30:04.872Z,0
2023-02-03T18:35:06.551Z,0.88715
2023-02-03T18:40:08.264Z,0.88715
2023-02-03T18:45:10.136Z,0.88715
2023-02-03T18:50:12.037Z,0
2023-02-03T18:55:13.829Z,0.88715
2023-02-03T19:00:15.730Z,0
2023-02-03T19:05:17.585Z,0.88715
2023-02-03T19:10:19.798Z,0
2023-02-03T19:15:21.310Z,0.88715
2023-02-03T19:20:22.770Z,0
2023-02-03T19:25:24.272Z,0
2023-02-03T19:30:25.863Z,0.88715
2023-02-03T19:35:27.876Z,0
2023-02-03T19:40:30.288Z,0
2023-02-03T19:45:32.317Z,0
2023-02-03T19:50:34.148Z,0
2023-02-03T19:55:35.823Z,0
2023-02-03T20:00:37.625Z,0
2023-02-03T20:05:39.458Z,0.88715
2023-02-03T20:10:41.434Z,0
2023-02-03T20:15:43.269Z,0
2023-02-03T20:20:45.169Z,0.88715
2023-02-03T20:25:46.772Z,0
2023-02-03T20:30:48.601Z,0.88715
2023-02-03T20:35:50.511Z,0
2023-02-03T20:40:52.739Z,0.88715
2023-02-03T20:45:54.312Z,0
2023-02-03T20:50:55.882Z,0
2023-02-03T20:55:57.398Z,0
2023-02-03T21:00:59.097Z,0
2023-02-03T21:06:00.722Z,0
2023-02-03T21:11:02.378Z,0
2023-02-03T21:16:04.157Z,0
2023-02-03T21:21:05.756Z,0.88715
2023-02-03T21:26:07.430Z,0.88715
2023-02-03T21:31:09.248Z,0.88715
2023-02-03T21:36:11.317Z,0
2023-02-03T21:41:13.378Z,0.88715
2023-02-03T21:46:15.334Z,0.88715
2023-02-03T21:51:17.413Z,0.88715
2023-02-03T21:56:19.388Z,0
2023-02-03T22:01:21.569Z,0
2023-02-03T22:06:23.488Z,0
2023-02-03T22:11:26.015Z,0
2023-02-03T22:16:28.088Z,0.88715
2023-02-03T22:21:30.035Z,0.88715
2023-02-03T22:26:32.333Z,0
2023-02-03T22:31:35.280Z,0.88715
2023-02-03T22:36:37.362Z,0
2023-02-03T22:41:39.672Z,0
2023-02-03T22:46:41.541Z,0
2023-02-03T22:51:43.447Z,0.88715
2023-02-03T22:56:45.285Z,0.88715
2023-02-03T23:01:47.120Z,0
2023-02-03T23:06:49.117Z,0
2023-02-03T23:11:51.212Z,0
2023-02-03T23:16:52.718Z,0
2023-02-03T23:21:54.197Z,0.88715
2023-02-03T23:26:55.645Z,0
2023-02-03T23:31:57.202Z,0
2023-02-03T23:36:58.876Z,0
2023-02-03T23:42:01.399Z,0.88715
2023-02-03T23:47:03.095Z,0
2023-02-03T23:52:05.231Z,0.88715
2023-02-03T23:57:06.714Z,0
